South Waterford, Maine
Current Conditions -  °F | °C
As of 8:54 PM on Saturday 22 Nov 2014 (Local Time) from KIZG Reporting Station
Few Clouds Few Clouds  
Wind Chill:   Ceiling: Unl
Heat Index:   Visibility: 10mi
Dew Point: -8°   Wind: 8mph
Humidity: 43%   Direction: 210°SSW
Pressure: 29.93"   Gusts: NA
Location:  44.17°N, 70.72°W
Report Text: KIZG 230154Z AUTO 21007KT 170V260 10SM FEW046 03/M08 A2993 RMK AO2 SLP140 T00331083
Loading
Personal Weather Stations






























Interactive Weather Map New forecast layout! Learn more

10-Day Weather Forecast

Advertisements
Track Severe Weather on mobile